EST,Max TemperatureF,Mean TemperatureF,Min TemperatureF,Max Dew PointF,MeanDew PointF,Min DewpointF,Max Humidity, Mean Humidity, Min Humidity, Max Sea Level PressureIn, Mean Sea Level PressureIn, Min Sea Level PressureIn, Max VisibilityMiles, Mean VisibilityMiles, Min VisibilityMiles, Max Wind SpeedMPH, Mean Wind SpeedMPH, Max Gust SpeedMPH,PrecipitationIn, CloudCover, Events, WindDirDegrees
2013-1-1,41,37,33,41,37,30,100,98,81,30.12,30.05,29.97,10,4,0,7,0,,0.28,8,Fog-Rain,360
2013-1-2,37,35,33,36,31,28,93,84,70,30.19,30.13,30.03,10,10,8,7,2,,0.00,8,Rain,336
2013-1-3,41,32,23,32,27,23,100,80,49,30.35,30.24,30.17,10,9,3,7,1,,0.00,3,,287
2013-1-4,37,27,17,25,21,16,100,80,48,30.42,30.38,30.35,10,10,10,12,2,16,0.00,2,,263
2013-1-5,41,28,15,32,23,16,100,77,49,30.43,30.34,30.25,10,10,9,5,0,,0.00,3,Rain,240
2013-1-6,44,40,35,36,32,25,93,76,57,30.31,30.20,30.11,10,10,10,13,4,16,0.00,8,,243
2013-1-7,48,36,23,28,25,23,100,72,40,30.44,30.36,30.31,10,10,7,8,2,,0.00,2,,35
2013-1-8,53,36,19,32,26,18,100,81,38,30.43,30.35,30.31,10,10,8,4,0,,0.00,1,,10
2013-1-9,48,38,28,48,39,28,100,97,81,30.50,30.43,30.34,10,6,0,7,0,,0.26,6,Fog-Rain,157
2013-1-10,60,50,41,54,48,41,100,88,67,30.50,30.40,30.23,10,8,0,9,1,,0.00,5,Fog,61
2013-1-11,66,60,53,59,54,46,100,86,67,30.22,30.13,30.07,10,9,2,16,6,21,0.03,7,Rain,107
2013-1-12,68,60,53,63,60,54,100,96,83,30.17,30.10,30.04,10,7,0,7,1,,0.01,7,Fog-Rain,246
2013-1-13,59,52,44,59,54,45,100,100,100,30.10,30.03,30.00,10,4,0,5,0,,0.52,6,Fog-Rain,28
2013-1-14,57,47,37,57,42,36,100,94,87,30.34,30.20,30.06,10,6,1,8,3,16,1.08,6,Rain,343
2013-1-15,41,39,37,41,39,37,100,99,93,30.23,30.11,30.00,10,6,2,6,2,,1.08,6,Rain,81
2013-1-16,46,42,39,46,42,37,100,99,87,30.09,30.02,29.94,10,8,2,7,1,,0.55,7,Rain,256
2013-1-17,41,36,30,41,34,27,100,93,81,30.32,30.09,30.00,10,7,0,7,2,,3.64,6,Rain-Snow-Thunderstorm,353
2013-1-18,37,30,23,32,27,23,100,89,70,30.53,30.47,30.35,10,8,3,5,1,,0.00,2,Rain,259
2013-1-19,46,32,17,32,26,18,100,86,46,30.44,30.32,30.18,10,8,0,9,1,,0.00,1,Fog,232
2013-1-20,51,37,23,34,26,19,100,75,32,30.20,30.16,30.12,10,10,9,12,2,16,0.00,0,,263
2013-1-21,41,30,19,27,15,3,100,62,26,30.19,30.12,30.07,10,10,10,21,4,28,0.00,0,,274
2013-1-22,28,22,15,5,-2,-4,49,35,25,30.33,30.27,30.18,10,10,10,14,7,20,0.00,3,,278
2013-1-23,37,30,23,21,9,0,80,46,31,30.35,30.24,30.10,10,10,10,12,3,16,0.00,5,,250
2013-1-24,39,28,17,28,8,-2,86,46,23,30.44,30.32,30.09,10,10,10,17,6,26,0.00,3,,337
2013-1-25,32,24,17,32,22,5,100,84,46,30.38,30.18,30.07,10,5,1,10,2,17,0.23,4,Rain,234
2013-1-26,33,28,23,32,27,23,100,90,80,30.39,30.28,30.17,10,8,2,7,2,,0.00,6,Rain,253
2013-1-27,44,30,17,37,28,16,100,87,61,30.45,30.39,30.34,10,8,2,5,0,,0.02,3,Rain,85
2013-1-28,48,42,37,46,40,36,100,94,71,30.37,30.31,30.25,10,5,0,4,0,,0.09,8,Fog-Rain,80
2013-1-29,68,55,42,54,49,43,100,86,60,30.26,30.12,29.92,10,6,0,9,1,,0.00,7,Fog,123
2013-1-30,64,52,41,59,52,36,100,88,68,29.90,29.65,29.51,10,7,1,20,7,26,2.29,6,Rain,174
2013-1-31,39,36,32,36,22,18,93,63,45,30.00,29.92,29.63,10,10,4,23,12,29,0.06,7,Rain-Snow,257